Rentz, Georgia
Current Conditions -  °F | °C
As of 12:15 PM on Thursday 27 Nov 2014 (Local Time) from KDBN Reporting Station
Scattered Clouds Scattered Clouds  
Wind Chill: 52°   Ceiling: Unl
Heat Index: 52°   Visibility: 10mi
Dew Point: 30°   Wind: 16mph
Humidity: 44%   Direction: 320°NW
Pressure: 30.27"   Gusts: 23mph
Location:  32.38°N, 82.99°W
Report Text: KDBN 271715Z AUTO 32014G20KT 10SM SCT050 11/M01 A3027 RMK AO2
Loading
Personal Weather Stations






























Interactive Weather Map New forecast layout! Learn more

10-Day Weather Forecast

Advertisements
Track Severe Weather on mobile